Terminal Aerodrome Forecast
Issued by NWS

Home | Current Version | Previous Version | Text Only | Print | Product List | Glossary On
Versions: 1 2 3 4 5 6 7 8 9 10 11 12 13 14 15 16 17 18 19
000
FTUS43 KIND 301500 AAB
TAFLAF
TAF AMD
KLAF 301533Z 3016/3112 21010KT P6SM FEW080
     FM301800 21012G20KT P6SM VCTS BKN040CB
     FM302200 23008KT 5SM -TSRA BKN035CB
     FM310500 22006KT 6SM BR VCTS BKN015CB=

USA.gov is the U.S. government's official web portal to all federal, state and local government web resources and services.